Time;durP1;ratioP1;P1;durP2;ratioP2;P2;SDS_P1;SDS_P2;PMS_P1;PMS_P2;Temp;Humidity;BMP_temperature;BMP_pressure;BME280_temperature;BME280_humidity;BME280_pressure;Samples;Min_cycle;Max_cycle;Signal;HPM_P1;HPM_P2
2022/10/22 00:00:01;;;;;;;11.95;6.10;;;13.70;99.90;;;;;;5041895;28;20037;-64
2022/10/22 00:02:27;;;;;;;9.57;6.00;;;13.70;99.90;;;;;;5041379;28;20053;-64
2022/10/22 00:04:55;;;;;;;10.20;6.22;;;13.70;99.90;;;;;;5046978;28;20041;-62
2022/10/22 00:07:21;;;;;;;7.95;6.38;;;13.70;99.90;;;;;;5047132;28;20059;-64
2022/10/22 00:09:46;;;;;;;10.90;6.97;;;13.70;99.90;;;;;;5036438;28;20041;-63
2022/10/22 00:12:14;;;;;;;10.52;6.30;;;13.70;99.90;;;;;;5037189;28;20392;-64
2022/10/22 00:14:41;;;;;;;12.13;6.82;;;13.70;99.90;;;;;;5049626;28;20103;-64
2022/10/22 00:17:06;;;;;;;9.75;6.45;;;13.70;99.90;;;;;;5045595;28;20074;-63
2022/10/22 00:19:32;;;;;;;10.25;6.45;;;13.60;99.90;;;;;;5041314;28;20029;-62
2022/10/22 00:21:58;;;;;;;10.43;5.97;;;13.60;99.90;;;;;;5034045;28;20046;-62
2022/10/22 00:24:26;;;;;;;8.68;6.25;;;13.60;99.90;;;;;;5033176;28;20535;-62
2022/10/22 00:26:52;;;;;;;10.50;6.57;;;13.60;99.90;;;;;;5047171;28;20132;-62
2022/10/22 00:29:19;;;;;;;10.73;6.60;;;13.60;99.90;;;;;;5042199;28;20033;-62
2022/10/22 00:31:48;;;;;;;13.10;6.72;;;13.60;99.90;;;;;;5043683;28;20045;-62
2022/10/22 00:34:20;;;;;;;10.63;6.20;;;13.50;99.90;;;;;;5046743;28;20052;-64
2022/10/22 00:36:46;;;;;;;11.77;6.65;;;13.50;99.90;;;;;;5051912;28;20078;-63
2022/10/22 00:39:14;;;;;;;14.02;6.35;;;13.50;99.90;;;;;;5049993;28;20033;-63
2022/10/22 00:41:44;;;;;;;8.50;6.47;;;13.50;99.90;;;;;;5040106;28;20526;-62
2022/10/22 00:44:48;;;;;;;10.57;6.68;;;13.50;99.90;;;;;;5048043;28;20048;-62
2022/10/22 00:47:14;;;;;;;10.23;6.80;;;13.50;99.90;;;;;;5033337;28;20155;-62
2022/10/22 00:49:41;;;;;;;10.95;6.97;;;13.50;99.90;;;;;;5049270;28;20029;-63
2022/10/22 00:52:07;;;;;;;12.70;6.82;;;13.50;99.90;;;;;;5042634;28;20037;-63
2022/10/22 00:54:34;;;;;;;11.90;6.97;;;13.50;99.90;;;;;;5040335;28;20499;-63
2022/10/22 00:57:00;;;;;;;9.88;6.90;;;13.50;99.90;;;;;;5043777;28;20487;-63
2022/10/22 00:59:27;;;;;;;11.68;6.63;;;13.40;99.90;;;;;;5043330;28;20029;-66
2022/10/22 01:01:53;;;;;;;10.35;6.93;;;13.50;99.90;;;;;;5047602;28;20060;-62
2022/10/22 01:04:19;;;;;;;9.65;6.63;;;13.40;99.90;;;;;;5039950;28;20030;-64
2022/10/22 01:06:46;;;;;;;10.80;6.80;;;13.40;99.90;;;;;;5041154;28;20495;-65
2022/10/22 01:09:26;;;;;;;10.88;6.38;;;13.50;99.90;;;;;;5044451;28;20357;-63
2022/10/22 01:11:55;;;;;;;10.52;6.30;;;13.40;99.90;;;;;;5062802;28;20073;-66
2022/10/22 01:14:45;;;;;;;12.65;7.28;;;13.40;99.90;;;;;;5040821;28;20073;-63
2022/10/22 01:17:33;;;;;;;12.82;7.00;;;13.40;99.90;;;;;;5038464;28;20044;-63
2022/10/22 01:20:09;;;;;;;9.68;6.88;;;13.40;99.90;;;;;;5037055;28;20040;-65
2022/10/22 01:22:40;;;;;;;12.85;6.93;;;13.40;99.90;;;;;;5047164;28;20049;-65
2022/10/22 01:25:30;;;;;;;13.50;6.85;;;13.40;99.90;;;;;;5050700;28;20073;-64
2022/10/22 01:28:22;;;;;;;11.95;7.15;;;13.40;99.90;;;;;;5045268;28;20045;-63
2022/10/22 01:30:51;;;;;;;11.75;6.45;;;13.40;99.90;;;;;;5036062;28;20056;-64
2022/10/22 01:33:19;;;;;;;11.88;6.55;;;13.30;99.90;;;;;;5040854;28;20033;-65
2022/10/22 01:35:45;;;;;;;11.02;6.75;;;13.30;99.90;;;;;;5040179;28;20065;-67
2022/10/22 01:38:22;;;;;;;13.75;6.70;;;13.40;99.90;;;;;;5041060;28;20041;-64
2022/10/22 01:40:49;;;;;;;12.07;7.20;;;13.40;99.90;;;;;;5046720;28;20137;-65
2022/10/22 01:43:15;;;;;;;10.55;6.65;;;13.40;99.90;;;;;;5042561;28;20045;-64
2022/10/22 01:45:56;;;;;;;10.85;6.82;;;13.30;99.90;;;;;;5038228;28;20037;-63
2022/10/22 01:48:47;;;;;;;10.93;6.82;;;13.30;99.90;;;;;;5040348;28;20044;-64
2022/10/22 01:51:24;;;;;;;10.35;7.00;;;13.40;99.90;;;;;;5041922;28;20047;-64
2022/10/22 01:54:23;;;;;;;12.07;6.72;;;13.40;99.90;;;;;;5047530;28;20068;-66
2022/10/22 01:57:14;;;;;;;11.27;6.57;;;13.30;99.90;;;;;;5045113;28;20532;-64
2022/10/22 01:59:46;;;;;;;10.15;6.68;;;13.30;99.90;;;;;;5039786;28;20044;-63
2022/10/22 02:02:41;;;;;;;15.05;6.93;;;13.30;99.90;;;;;;5039266;28;20048;-64
2022/10/22 02:05:45;;;;;;;10.15;6.20;;;13.30;99.90;;;;;;5037699;28;20044;-64
2022/10/22 02:08:14;;;;;;;11.98;6.63;;;13.20;99.90;;;;;;5025382;28;20117;-66
2022/10/22 02:10:45;;;;;;;10.45;6.63;;;13.30;99.90;;;;;;5047548;28;20199;-65
2022/10/22 02:13:23;;;;;;;14.93;7.32;;;13.30;99.90;;;;;;5041844;28;20041;-64
2022/10/22 02:15:50;;;;;;;11.00;5.93;;;13.30;99.90;;;;;;5037151;28;20542;-64
2022/10/22 02:18:21;;;;;;;12.73;7.03;;;13.30;99.90;;;;;;5048125;28;20041;-63
2022/10/22 02:20:47;;;;;;;14.02;6.57;;;13.20;99.90;;;;;;5048179;28;20407;-64
2022/10/22 02:23:13;;;;;;;11.30;6.45;;;13.20;99.90;;;;;;5037786;28;20056;-64
2022/10/22 02:25:42;;;;;;;11.75;6.40;;;13.20;99.90;;;;;;5037725;28;20045;-64
2022/10/22 02:28:17;;;;;;;13.02;6.80;;;13.20;99.90;;;;;;5038811;28;20045;-64
2022/10/22 02:30:47;;;;;;;12.50;6.65;;;13.20;99.90;;;;;;5047856;28;20120;-64
2022/10/22 02:33:27;;;;;;;11.50;6.93;;;13.20;99.90;;;;;;5046140;28;20041;-64
2022/10/22 02:35:55;;;;;;;11.40;6.28;;;13.20;99.90;;;;;;5044840;28;20052;-64
2022/10/22 02:38:23;;;;;;;9.90;6.75;;;13.20;99.90;;;;;;5044569;28;20056;-64
2022/10/22 02:40:49;;;;;;;12.27;6.82;;;13.20;99.90;;;;;;5041120;28;20041;-63
2022/10/22 02:43:17;;;;;;;11.73;6.03;;;13.20;99.90;;;;;;5042906;28;20049;-64
2022/10/22 02:45:42;;;;;;;12.40;6.70;;;13.20;99.90;;;;;;5047434;28;20056;-63
2022/10/22 02:48:08;;;;;;;11.38;6.03;;;13.10;99.90;;;;;;5047075;28;20032;-64
2022/10/22 02:50:34;;;;;;;13.93;6.50;;;13.10;99.90;;;;;;5049025;28;20529;-64
2022/10/22 02:52:59;;;;;;;10.02;6.45;;;13.10;99.90;;;;;;5042689;28;20488;-64
2022/10/22 02:55:25;;;;;;;10.20;6.15;;;13.10;99.90;;;;;;5042314;28;20083;-64
2022/10/22 02:57:51;;;;;;;13.57;6.55;;;13.10;99.90;;;;;;5045117;28;20403;-64
2022/10/22 03:00:17;;;;;;;15.30;6.78;;;13.00;99.90;;;;;;5036770;28;20091;-63
2022/10/22 03:02:42;;;;;;;11.55;6.55;;;13.00;99.90;;;;;;5031334;28;20393;-63
2022/10/22 03:05:08;;;;;;;11.00;6.78;;;13.00;99.90;;;;;;5040900;28;20044;-63
2022/10/22 03:07:34;;;;;;;10.13;6.72;;;13.10;99.90;;;;;;5043804;28;20071;-63
2022/10/22 03:10:00;;;;;;;14.85;6.55;;;13.00;99.90;;;;;;5037110;28;20435;-65
2022/10/22 03:12:25;;;;;;;12.85;6.88;;;13.10;99.90;;;;;;5038798;28;20479;-63
2022/10/22 03:14:51;;;;;;;10.85;6.97;;;13.10;99.90;;;;;;5040293;28;20055;-63
2022/10/22 03:17:16;;;;;;;10.30;7.13;;;13.00;99.90;;;;;;5051422;28;20395;-63
2022/10/22 03:19:42;;;;;;;12.30;6.47;;;13.00;99.90;;;;;;5051296;28;20029;-64
2022/10/22 03:22:23;;;;;;;11.32;6.75;;;13.10;99.90;;;;;;5041305;28;20373;-65
2022/10/22 03:24:54;;;;;;;13.20;6.60;;;13.10;99.90;;;;;;5050460;28;20587;-63
2022/10/22 03:27:21;;;;;;;12.45;6.72;;;13.00;99.90;;;;;;5049031;28;20256;-64
2022/10/22 03:29:49;;;;;;;11.10;7.03;;;13.00;99.90;;;;;;5041781;28;20033;-64
2022/10/22 03:32:15;;;;;;;10.05;7.05;;;13.00;99.90;;;;;;5038848;28;20041;-63
2022/10/22 03:34:41;;;;;;;13.15;7.10;;;13.00;99.90;;;;;;5043357;28;20041;-64
2022/10/22 03:37:06;;;;;;;11.80;6.88;;;13.00;99.90;;;;;;5052343;28;20434;-64
2022/10/22 03:39:34;;;;;;;13.07;7.55;;;13.00;99.90;;;;;;5045868;28;20028;-64
2022/10/22 03:42:01;;;;;;;12.40;7.05;;;12.90;99.90;;;;;;5044257;28;20041;-63
2022/10/22 03:44:27;;;;;;;10.35;7.68;;;12.90;99.90;;;;;;5048343;28;20043;-64
2022/10/22 03:46:52;;;;;;;13.27;7.22;;;12.90;99.90;;;;;;5047412;28;20051;-64
2022/10/22 03:49:18;;;;;;;13.05;7.70;;;12.90;99.90;;;;;;5052506;28;20040;-63
2022/10/22 03:51:44;;;;;;;11.57;7.22;;;12.90;99.90;;;;;;5047717;28;20586;-64
2022/10/22 03:54:09;;;;;;;13.25;7.35;;;12.90;99.90;;;;;;5043007;28;20072;-63
2022/10/22 03:56:35;;;;;;;13.18;7.93;;;12.90;99.90;;;;;;5044988;28;20065;-64
2022/10/22 03:59:01;;;;;;;11.82;7.82;;;12.90;99.90;;;;;;5044216;28;20087;-63
2022/10/22 04:01:28;;;;;;;15.20;7.88;;;12.80;99.90;;;;;;5051113;28;20033;-63
2022/10/22 04:03:54;;;;;;;14.45;8.02;;;12.80;99.90;;;;;;5044651;28;20084;-64
2022/10/22 04:06:20;;;;;;;12.13;7.88;;;12.80;99.90;;;;;;5037111;28;20394;-64
2022/10/22 04:08:46;;;;;;;13.23;7.88;;;12.80;99.90;;;;;;5049590;28;20127;-63
2022/10/22 04:11:13;;;;;;;12.52;8.25;;;12.80;99.90;;;;;;5046418;28;20129;-64
2022/10/22 04:13:39;;;;;;;15.55;7.95;;;12.80;99.90;;;;;;5040084;28;20091;-64
2022/10/22 04:16:12;;;;;;;12.02;7.88;;;12.70;99.90;;;;;;5035484;28;20057;-64
2022/10/22 04:18:39;;;;;;;14.50;9.13;;;12.80;99.90;;;;;;5042174;28;20033;-64
2022/10/22 04:21:06;;;;;;;13.05;8.18;;;12.80;99.90;;;;;;5051023;28;20391;-63
2022/10/22 04:23:31;;;;;;;12.77;8.75;;;12.80;99.90;;;;;;5043639;28;20047;-65
2022/10/22 04:26:02;;;;;;;13.90;8.30;;;12.80;99.90;;;;;;5043698;28;20033;-63
2022/10/22 04:28:28;;;;;;;14.13;8.07;;;12.80;99.90;;;;;;5045775;28;20075;-65
2022/10/22 04:30:54;;;;;;;13.52;8.07;;;12.80;99.90;;;;;;5051363;28;20075;-64
2022/10/22 04:33:20;;;;;;;15.32;8.48;;;12.80;99.90;;;;;;5033173;28;20720;-63
2022/10/22 04:35:46;;;;;;;13.32;8.38;;;12.80;99.90;;;;;;5054928;28;20291;-63
2022/10/22 04:38:11;;;;;;;16.17;8.10;;;12.80;99.90;;;;;;5027590;28;20106;-64
2022/10/22 04:40:37;;;;;;;12.30;7.90;;;12.80;99.90;;;;;;5041286;28;20041;-63
2022/10/22 04:43:03;;;;;;;11.98;8.07;;;12.70;99.90;;;;;;5050612;28;20036;-64
2022/10/22 04:45:28;;;;;;;16.83;8.30;;;12.70;99.90;;;;;;5050198;28;20307;-64
2022/10/22 04:47:54;;;;;;;14.27;8.35;;;12.80;99.90;;;;;;5040004;28;20107;-65
2022/10/22 04:50:20;;;;;;;13.63;7.93;;;12.70;99.90;;;;;;5040015;28;20037;-63
2022/10/22 04:52:45;;;;;;;14.20;8.18;;;12.80;99.90;;;;;;5032735;28;20042;-64
2022/10/22 04:55:11;;;;;;;15.05;8.23;;;12.80;99.90;;;;;;5050650;28;20091;-64
2022/10/22 04:57:36;;;;;;;13.70;8.00;;;12.80;99.90;;;;;;5049735;28;20120;-64
2022/10/22 05:00:03;;;;;;;15.10;8.30;;;12.80;99.90;;;;;;5037645;28;20120;-63
2022/10/22 05:02:29;;;;;;;16.23;8.25;;;12.70;99.90;;;;;;5042900;28;20044;-64
2022/10/22 05:04:55;;;;;;;14.73;8.07;;;12.80;99.90;;;;;;5037600;28;20543;-65
2022/10/22 05:07:20;;;;;;;14.75;8.15;;;12.80;99.90;;;;;;5045294;28;20060;-63
2022/10/22 05:09:46;;;;;;;14.88;7.60;;;12.80;99.90;;;;;;5043281;28;20505;-63
2022/10/22 05:12:12;;;;;;;14.43;8.10;;;12.80;99.90;;;;;;5044336;28;20068;-64
2022/10/22 05:14:37;;;;;;;14.65;8.25;;;12.80;99.90;;;;;;5048105;28;20030;-65
2022/10/22 05:17:03;;;;;;;12.63;7.35;;;12.80;99.90;;;;;;5045050;28;20041;-64
2022/10/22 05:19:30;;;;;;;14.32;7.85;;;12.70;99.90;;;;;;5044740;28;20033;-63
2022/10/22 05:21:58;;;;;;;15.38;8.68;;;12.70;99.90;;;;;;5040146;28;20076;-63
2022/10/22 05:24:25;;;;;;;16.42;7.85;;;12.80;99.90;;;;;;5050094;28;20060;-65
2022/10/22 05:26:52;;;;;;;12.55;7.43;;;12.80;99.90;;;;;;5049646;28;20041;-63
2022/10/22 05:29:17;;;;;;;14.25;8.02;;;12.80;99.90;;;;;;5045795;28;20057;-64
2022/10/22 05:31:43;;;;;;;15.65;8.57;;;12.70;99.90;;;;;;5041535;28;20091;-63
2022/10/22 05:34:09;;;;;;;12.68;7.28;;;12.80;99.90;;;;;;5048968;28;20380;-63
2022/10/22 05:36:35;;;;;;;15.13;8.18;;;12.80;99.90;;;;;;5040071;28;20116;-63
2022/10/22 05:39:00;;;;;;;12.35;8.25;;;12.80;99.90;;;;;;5047436;28;20461;-64
2022/10/22 05:41:27;;;;;;;15.70;7.57;;;12.80;99.90;;;;;;5041793;28;20052;-63
2022/10/22 05:43:57;;;;;;;13.43;7.43;;;12.80;99.90;;;;;;5035684;28;20041;-63
2022/10/22 05:46:26;;;;;;;14.70;7.65;;;12.80;99.90;;;;;;5049521;28;20041;-64
2022/10/22 05:48:56;;;;;;;14.15;7.65;;;12.80;99.90;;;;;;5029449;28;20037;-63
2022/10/22 05:51:24;;;;;;;16.02;8.20;;;12.80;99.90;;;;;;5045714;28;20079;-64
2022/10/22 05:53:55;;;;;;;16.70;7.88;;;12.80;99.90;;;;;;5045233;28;20033;-64
2022/10/22 05:56:21;;;;;;;13.25;7.50;;;12.80;99.90;;;;;;5036883;28;20045;-64
2022/10/22 05:58:47;;;;;;;13.68;7.90;;;12.80;99.90;;;;;;5040470;28;20125;-63
2022/10/22 06:01:17;;;;;;;11.77;6.90;;;12.80;99.90;;;;;;5047820;28;20124;-64
2022/10/22 06:03:44;;;;;;;13.90;7.75;;;12.90;99.90;;;;;;5039903;28;20116;-64
2022/10/22 06:06:21;;;;;;;14.52;7.10;;;12.90;99.90;;;;;;5047358;28;20573;-64
2022/10/22 06:08:48;;;;;;;12.02;7.13;;;12.90;99.90;;;;;;5050053;28;20040;-64
2022/10/22 06:11:16;;;;;;;13.05;7.65;;;12.90;99.90;;;;;;5047161;28;20033;-64
2022/10/22 06:13:43;;;;;;;18.90;7.57;;;12.90;99.90;;;;;;5038824;28;20056;-63
2022/10/22 06:16:09;;;;;;;12.98;7.13;;;12.90;99.90;;;;;;5040294;28;20046;-63
2022/10/22 06:18:35;;;;;;;12.90;6.97;;;13.00;99.90;;;;;;5038609;28;20031;-64
2022/10/22 06:21:12;;;;;;;14.60;7.70;;;12.90;99.90;;;;;;5036492;28;20107;-63
2022/10/22 06:23:39;;;;;;;12.50;6.65;;;13.00;99.90;;;;;;5047471;28;20037;-65
2022/10/22 06:26:05;;;;;;;13.07;7.28;;;13.00;99.90;;;;;;5031536;28;20233;-64
2022/10/22 06:28:31;;;;;;;14.27;6.65;;;13.00;99.90;;;;;;5042637;28;20047;-64
2022/10/22 06:30:58;;;;;;;13.75;7.28;;;13.00;99.90;;;;;;5042056;28;20045;-66
2022/10/22 06:33:25;;;;;;;15.88;7.47;;;13.10;99.90;;;;;;5035523;28;20041;-64
2022/10/22 06:35:50;;;;;;;12.82;6.70;;;13.10;99.90;;;;;;5044752;28;20519;-64
2022/10/22 06:38:16;;;;;;;12.65;6.88;;;13.00;99.90;;;;;;5043202;28;20037;-64
2022/10/22 06:40:43;;;;;;;13.00;7.10;;;13.00;99.90;;;;;;5035073;28;20124;-64
2022/10/22 06:43:10;;;;;;;15.85;7.00;;;13.10;99.90;;;;;;5041279;28;20069;-64
2022/10/22 06:45:36;;;;;;;13.38;7.43;;;13.10;99.90;;;;;;5046814;28;20127;-64
2022/10/22 06:48:02;;;;;;;13.30;7.13;;;13.10;99.90;;;;;;5044556;28;20056;-65
2022/10/22 06:50:27;;;;;;;11.50;6.80;;;13.00;99.90;;;;;;5047056;28;20049;-66
2022/10/22 06:52:53;;;;;;;14.73;7.25;;;13.10;99.90;;;;;;5047546;28;20256;-64
2022/10/22 06:55:18;;;;;;;13.48;7.03;;;13.10;99.90;;;;;;5043072;28;20617;-64
2022/10/22 06:57:44;;;;;;;14.00;7.00;;;13.10;99.90;;;;;;5047685;28;20048;-64
2022/10/22 07:00:10;;;;;;;11.25;6.82;;;13.10;99.90;;;;;;5044841;28;20483;-65
2022/10/22 07:02:36;;;;;;;15.20;6.93;;;13.10;99.90;;;;;;5041188;28;20411;-64
2022/10/22 07:05:02;;;;;;;12.82;6.80;;;13.20;99.90;;;;;;5062682;28;20048;-64
2022/10/22 07:07:27;;;;;;;13.70;7.20;;;13.20;99.90;;;;;;5049648;28;20036;-66
2022/10/22 07:09:53;;;;;;;14.57;7.47;;;13.20;99.90;;;;;;5035333;28;20052;-66
2022/10/22 07:12:18;;;;;;;13.23;6.50;;;13.20;99.90;;;;;;5051530;28;20499;-64
2022/10/22 07:14:44;;;;;;;15.98;7.40;;;13.20;99.90;;;;;;5048557;28;20175;-65
2022/10/22 07:17:09;;;;;;;14.75;7.18;;;13.30;99.90;;;;;;5047433;28;20065;-64
2022/10/22 07:19:35;;;;;;;13.48;7.00;;;13.30;99.90;;;;;;5050578;28;20517;-64
2022/10/22 07:22:01;;;;;;;14.13;6.95;;;13.30;99.90;;;;;;5051825;28;20036;-64
2022/10/22 07:24:27;;;;;;;12.52;6.60;;;13.40;99.90;;;;;;5052663;28;20029;-65
2022/10/22 07:26:52;;;;;;;12.48;6.82;;;13.30;99.90;;;;;;5053077;28;20047;-64
2022/10/22 07:29:18;;;;;;;17.60;7.03;;;13.30;99.90;;;;;;5042866;28;20495;-63
2022/10/22 07:31:44;;;;;;;11.18;5.95;;;13.40;99.90;;;;;;5041917;28;20179;-64
2022/10/22 07:34:09;;;;;;;12.15;6.75;;;13.30;99.90;;;;;;5045843;28;20033;-63
2022/10/22 07:36:35;;;;;;;16.45;6.78;;;13.30;99.90;;;;;;5044591;28;20470;-64
2022/10/22 07:39:02;;;;;;;15.20;7.13;;;13.30;99.90;;;;;;5049004;28;20120;-65
2022/10/22 07:41:29;;;;;;;16.00;7.10;;;13.30;99.90;;;;;;5051339;28;20036;-66
2022/10/22 07:43:56;;;;;;;16.13;7.07;;;13.30;99.90;;;;;;5046257;28;20214;-66
2022/10/22 07:46:23;;;;;;;16.20;6.75;;;13.30;99.90;;;;;;5046988;28;20063;-64
2022/10/22 07:48:49;;;;;;;13.27;6.25;;;13.30;99.90;;;;;;5049055;28;20670;-64
2022/10/22 07:51:15;;;;;;;12.52;6.32;;;13.30;99.90;;;;;;5045630;28;20044;-64
2022/10/22 07:53:41;;;;;;;14.45;6.88;;;13.30;99.90;;;;;;5045031;28;20436;-64
2022/10/22 07:56:06;;;;;;;12.50;6.82;;;13.30;99.90;;;;;;5046637;28;20441;-63
2022/10/22 07:58:33;;;;;;;13.77;6.65;;;13.30;99.90;;;;;;5044949;28;20052;-63
2022/10/22 08:01:00;;;;;;;13.02;6.47;;;13.30;99.90;;;;;;5042541;28;20036;-63
2022/10/22 08:03:26;;;;;;;18.42;6.55;;;13.30;99.90;;;;;;5045655;28;20403;-63
2022/10/22 08:05:52;;;;;;;13.13;6.53;;;13.30;99.90;;;;;;5042576;28;20030;-64
2022/10/22 08:08:19;;;;;;;11.90;6.38;;;13.30;99.90;;;;;;5050974;28;20033;-66
2022/10/22 08:10:47;;;;;;;12.07;6.82;;;13.40;99.90;;;;;;5046528;28;20552;-64
2022/10/22 08:13:13;;;;;;;14.48;6.32;;;13.40;99.90;;;;;;5044204;28;20083;-64
2022/10/22 08:15:39;;;;;;;14.48;6.15;;;13.40;99.90;;;;;;5046507;28;20450;-64
2022/10/22 08:18:04;;;;;;;17.90;6.82;;;13.40;99.90;;;;;;5036893;28;20049;-66
2022/10/22 08:20:30;;;;;;;15.55;6.60;;;13.40;99.90;;;;;;5044421;28;20048;-65
2022/10/22 08:22:57;;;;;;;15.90;6.05;;;13.50;99.90;;;;;;5045474;28;20041;-63
2022/10/22 08:25:23;;;;;;;18.75;6.57;;;13.50;99.90;;;;;;5042338;28;20124;-64
2022/10/22 08:27:48;;;;;;;15.52;5.95;;;13.50;99.90;;;;;;5051268;28;20124;-65
2022/10/22 08:30:14;;;;;;;16.02;6.32;;;13.60;99.90;;;;;;5047275;28;20111;-63
2022/10/22 08:32:40;;;;;;;14.48;5.90;;;13.60;99.90;;;;;;5048944;28;20032;-64
2022/10/22 08:35:06;;;;;;;15.23;6.45;;;13.60;99.90;;;;;;5042637;28;20067;-64
2022/10/22 08:37:32;;;;;;;16.35;5.88;;;13.70;99.90;;;;;;5047861;28;20112;-64
2022/10/22 08:39:57;;;;;;;17.17;6.07;;;13.70;99.90;;;;;;5043817;28;20451;-64
2022/10/22 08:42:35;;;;;;;14.88;5.28;;;13.80;99.90;;;;;;5048512;28;20041;-65
2022/10/22 08:45:15;;;;;;;14.70;5.07;;;13.90;99.90;;;;;;5040402;28;20232;-63
2022/10/22 08:48:16;;;;;;;14.60;5.22;;;13.90;99.90;;;;;;5046832;28;20123;-64
2022/10/22 08:50:46;;;;;;;13.85;5.80;;;14.00;99.90;;;;;;5045152;28;20567;-65
2022/10/22 08:53:17;;;;;;;16.42;5.30;;;14.10;99.90;;;;;;5041837;28;20037;-64
2022/10/22 08:55:44;;;;;;;14.13;5.00;;;14.10;99.90;;;;;;5042824;28;20392;-64
2022/10/22 08:58:37;;;;;;;18.10;5.10;;;14.20;99.90;;;;;;5049664;28;20068;-63
2022/10/22 09:01:34;;;;;;;14.73;5.30;;;14.30;99.90;;;;;;5039361;28;20049;-63
2022/10/22 09:04:18;;;;;;;16.10;5.63;;;14.40;99.90;;;;;;5025603;28;20049;-65
2022/10/22 09:06:44;;;;;;;15.13;5.50;;;14.50;99.90;;;;;;5040323;28;20116;-63
2022/10/22 09:09:20;;;;;;;14.57;5.22;;;14.60;99.90;;;;;;5037123;28;20124;-66
2022/10/22 09:11:48;;;;;;;15.90;5.18;;;14.70;99.90;;;;;;5035299;28;20056;-63
2022/10/22 09:14:20;;;;;;;16.48;5.18;;;14.70;99.90;;;;;;5043834;28;20391;-64
2022/10/22 09:16:52;;;;;;;;;;;14.80;99.90;;;;;;5043108;28;20175;-63
2022/10/22 09:19:25;;;;;;;16.52;5.18;;;14.80;99.90;;;;;;5038106;28;19917;-66
2022/10/22 09:21:57;;;;;;;13.57;4.93;;;14.80;99.90;;;;;;5038798;28;20056;-63
2022/10/22 09:24:31;;;;;;;12.85;4.78;;;14.80;99.90;;;;;;5051523;28;20373;-63
2022/10/22 09:26:57;;;;;;;13.27;4.55;;;14.90;99.90;;;;;;5036485;28;20053;-63
2022/10/22 09:29:31;;;;;;;15.15;5.05;;;14.90;99.90;;;;;;5042968;28;20033;-63
2022/10/22 09:31:57;;;;;;;15.68;4.68;;;14.80;99.90;;;;;;5050784;28;20033;-64
2022/10/22 09:34:22;;;;;;;12.82;4.68;;;14.90;99.90;;;;;;5036527;28;20365;-64
2022/10/22 09:37:01;;;;;;;12.77;4.35;;;14.90;99.90;;;;;;5050735;28;20499;-67
2022/10/22 09:39:31;;;;;;;12.52;4.03;;;14.90;99.90;;;;;;5042005;28;20030;-66
2022/10/22 09:41:57;;;;;;;17.75;4.97;;;14.90;99.90;;;;;;5045639;28;20029;-64
2022/10/22 09:44:22;;;;;;;10.35;4.13;;;14.90;99.90;;;;;;5036355;28;20048;-66
2022/10/22 09:46:48;;;;;;;11.05;4.10;;;14.90;99.90;;;;;;5046384;28;20060;-63
2022/10/22 09:49:17;;;;;;;14.55;4.18;;;14.90;99.90;;;;;;5045232;28;20123;-62
2022/10/22 09:51:58;;;;;;;12.88;4.25;;;14.90;99.90;;;;;;5033644;28;20037;-64
2022/10/22 09:54:44;;;;;;;13.23;4.63;;;14.90;99.90;;;;;;5042638;28;20495;-63
2022/10/22 09:57:16;;;;;;;10.52;4.28;;;14.90;99.90;;;;;;5037994;28;20055;-62
2022/10/22 09:59:46;;;;;;;12.07;4.20;;;14.90;99.90;;;;;;5039841;28;20136;-63
2022/10/22 10:02:17;;;;;;;11.35;4.45;;;15.00;99.90;;;;;;5042677;28;20037;-65
2022/10/22 10:04:48;;;;;;;13.75;4.20;;;15.00;99.90;;;;;;5042610;28;20072;-65
2022/10/22 10:07:21;;;;;;;16.65;4.47;;;15.00;99.90;;;;;;5039968;28;20491;-64
2022/10/22 10:09:47;;;;;;;13.93;4.60;;;15.10;99.90;;;;;;5038476;28;20040;-65
2022/10/22 10:12:45;;;;;;;14.75;5.47;;;15.20;99.90;;;;;;5048355;28;20559;-65
2022/10/22 10:15:26;;;;;;;16.00;4.40;;;15.20;99.90;;;;;;5030488;28;20037;-64
2022/10/22 10:18:07;;;;;;;10.35;4.13;;;15.30;99.90;;;;;;5042785;28;20459;-64
2022/10/22 10:20:42;;;;;;;9.32;4.53;;;15.40;99.90;;;;;;5043109;28;20056;-64
2022/10/22 10:23:20;;;;;;;12.60;4.72;;;15.40;99.90;;;;;;5034808;28;20044;-63
2022/10/22 10:25:48;;;;;;;11.95;4.82;;;15.40;99.90;;;;;;5047450;28;20068;-65
2022/10/22 10:28:17;;;;;;;11.57;4.63;;;15.40;99.90;;;;;;5037052;28;20037;-65
2022/10/22 10:30:58;;;;;;;13.38;4.40;;;15.40;99.90;;;;;;5051240;28;20032;-65
2022/10/22 10:33:49;;;;;;;14.02;4.50;;;15.40;99.90;;;;;;5040075;28;20065;-64
2022/10/22 10:37:00;;;;;;;16.13;4.88;;;15.40;99.90;;;;;;5049270;28;20102;-65
2022/10/22 10:39:43;;;;;;;11.52;5.10;;;15.40;99.90;;;;;;5019736;28;20041;-65
2022/10/22 10:42:29;;;;;;;12.68;5.32;;;15.30;99.90;;;;;;5040545;28;20053;-65
2022/10/22 10:45:13;;;;;;;12.85;5.47;;;15.30;99.90;;;;;;5039105;28;20138;-65
2022/10/22 10:47:45;;;;;;;17.73;6.30;;;15.30;99.90;;;;;;5041930;28;20029;-64
2022/10/22 10:50:30;;;;;;;13.80;6.30;;;15.30;99.90;;;;;;5037990;28;20048;-65
2022/10/22 10:53:23;;;;;;;16.40;6.45;;;15.30;99.90;;;;;;5042375;28;20041;-65
2022/10/22 10:56:16;;;;;;;11.85;5.57;;;15.20;99.90;;;;;;5052196;28;20045;-65
2022/10/22 10:58:55;;;;;;;13.60;5.53;;;15.20;99.90;;;;;;5045878;28;20450;-65
2022/10/22 11:01:40;;;;;;;15.48;6.05;;;15.20;99.90;;;;;;5052232;28;20049;-65
2022/10/22 11:04:39;;;;;;;20.13;6.28;;;15.20;99.90;;;;;;5043542;28;20052;-65
2022/10/22 11:07:08;;;;;;;12.48;5.95;;;15.20;99.90;;;;;;5042829;28;20076;-63
2022/10/22 11:09:51;;;;;;;14.30;6.15;;;15.10;99.90;;;;;;5051699;28;20048;-65
2022/10/22 11:12:23;;;;;;;14.30;6.38;;;15.10;99.90;;;;;;5048636;28;20032;-64
2022/10/22 11:15:07;;;;;;;;;;;15.20;99.90;;;;;;5045702;28;20577;-64
2022/10/22 11:17:41;;;;;;;18.38;6.82;;;15.20;99.90;;;;;;5037895;28;19924;-63
2022/10/22 11:20:30;;;;;;;12.32;6.40;;;15.20;99.90;;;;;;5048237;28;20054;-65
2022/10/22 11:23:05;;;;;;;16.13;6.55;;;15.20;99.90;;;;;;5036641;28;20120;-65
2022/10/22 11:25:38;;;;;;;14.00;6.38;;;15.20;99.90;;;;;;5048276;28;20040;-65
2022/10/22 11:28:26;;;;;;;12.63;6.28;;;15.20;99.90;;;;;;5045194;28;20104;-65
2022/10/22 11:31:06;;;;;;;16.48;6.18;;;15.20;99.90;;;;;;5042909;28;20112;-65
2022/10/22 11:34:06;;;;;;;16.52;6.10;;;15.30;99.90;;;;;;5039892;28;20033;-65
2022/10/22 11:36:33;;;;;;;15.18;6.35;;;15.40;99.90;;;;;;4989647;28;20056;-64
2022/10/22 11:39:02;;;;;;;11.68;5.97;;;15.40;99.90;;;;;;5050258;28;20043;-65
2022/10/22 11:41:31;;;;;;;11.32;5.25;;;15.50;99.90;;;;;;5040372;28;20521;-65
2022/10/22 11:44:06;;;;;;;13.32;5.47;;;15.60;99.90;;;;;;5046845;28;20075;-65
2022/10/22 11:46:38;;;;;;;12.70;5.78;;;15.60;99.90;;;;;;5041023;28;20087;-64
2022/10/22 11:49:17;;;;;;;14.88;5.88;;;15.70;99.90;;;;;;5040526;28;20055;-66
2022/10/22 11:51:45;;;;;;;10.85;5.35;;;15.80;99.90;;;;;;5041237;28;20379;-65
2022/10/22 11:54:42;;;;;;;14.18;5.32;;;15.80;99.90;;;;;;5038472;28;20036;-65
2022/10/22 11:57:14;;;;;;;13.30;4.60;;;15.90;99.90;;;;;;5043073;28;20117;-63
2022/10/22 11:59:59;;;;;;;12.00;5.07;;;15.90;99.90;;;;;;5035883;28;20061;-65
2022/10/22 12:02:28;;;;;;;12.45;4.75;;;15.90;99.90;;;;;;5044709;28;20036;-65
2022/10/22 12:05:16;;;;;;;12.63;4.57;;;15.90;99.90;;;;;;5039845;28;20039;-65
2022/10/22 12:08:00;;;;;;;11.75;4.93;;;15.90;99.90;;;;;;5046350;28;20111;-66
2022/10/22 12:10:47;;;;;;;10.60;4.82;;;15.90;99.90;;;;;;5032390;28;20033;-65
2022/10/22 12:13:23;;;;;;;10.48;4.00;;;15.90;99.90;;;;;;5046667;28;20499;-64
2022/10/22 12:15:53;;;;;;;10.25;4.30;;;15.90;99.90;;;;;;5046308;28;20049;-65
2022/10/22 12:18:24;;;;;;;12.98;4.28;;;15.80;99.90;;;;;;5043237;28;20503;-65
2022/10/22 12:20:51;;;;;;;9.53;3.97;;;15.90;99.90;;;;;;5046118;28;20037;-65
2022/10/22 12:23:17;;;;;;;12.23;4.25;;;15.90;99.90;;;;;;5047412;28;20045;-65
2022/10/22 12:25:43;;;;;;;9.85;3.78;;;15.90;99.90;;;;;;5042296;28;20064;-65
2022/10/22 12:28:12;;;;;;;11.65;4.47;;;15.90;99.90;;;;;;5052284;28;20047;-65
2022/10/22 12:30:38;;;;;;;10.40;3.85;;;16.00;99.90;;;;;;5042000;28;20056;-62
2022/10/22 12:33:06;;;;;;;12.48;4.20;;;16.00;99.90;;;;;;5050517;28;20060;-64
2022/10/22 12:35:41;;;;;;;13.43;4.28;;;16.10;99.90;;;;;;5051217;28;20041;-64
2022/10/22 12:38:21;;;;;;;13.45;3.90;;;16.00;99.90;;;;;;5044569;28;20033;-63
2022/10/22 12:40:52;;;;;;;10.77;4.13;;;16.00;99.90;;;;;;5032183;28;20510;-64
2022/10/22 12:43:27;;;;;;;9.98;3.92;;;16.00;99.90;;;;;;5032559;28;20041;-64
2022/10/22 12:45:54;;;;;;;9.38;3.60;;;16.00;99.90;;;;;;5049911;28;20120;-64
2022/10/22 12:48:27;;;;;;;7.40;3.78;;;16.00;99.90;;;;;;5035697;28;20117;-64
2022/10/22 12:50:55;;;;;;;13.90;3.78;;;16.00;99.90;;;;;;5033794;28;20483;-64
2022/10/22 12:53:31;;;;;;;8.63;3.67;;;16.00;99.90;;;;;;5030644;28;20044;-64
2022/10/22 12:56:11;;;;;;;9.85;4.18;;;16.00;99.90;;;;;;5039634;28;20108;-64